Terminal Aerodrome Forecast
Issued by NWS Wichita, KS

Home | Current Version | Previous Version | Text Only | Print | Product List | Glossary On
Versions: 1 2 3 4 5 6 7 8 9 10 11 12 13 14 15 16 17 18 19
000
FTUS43 KICT 310520
TAFICT
TAF
KICT 310520Z 3106/0106 VRB05KT P6SM FEW100 SCT200
      TEMPO 3111/3114 5SM BR FEW035 SCT200
     FM311700 13008KT P6SM SCT040 SCT250=

USA.gov is the U.S. government's official web portal to all federal, state and local government web resources and services.